| time (UTC) | temp C | wind direction | speed KPH | gust KPH | rain 1hr cm | rain 24hr cm | rain mn cm | humidity % | barometer mb |
| 20260506202003 | 23 | 65 | 1.6 | 8.0 | 0.00 | 0.00 | 0.00 | 56 | 1018.2 |
| 20260506201503 | 23 | 78 | 1.6 | 8.0 | 0.00 | 0.00 | 0.00 | 57 | 1018.3 |
| 20260506201003 | 23 | 148 | 1.6 | 3.2 | 0.00 | 0.00 | 0.00 | 58 | 1018.4 |
| 20260506200503 | 22 | 150 | 1.6 | 4.8 | 0.00 | 0.00 | 0.00 | 58 | 1018.4 |
| 20260506200216 | 22 | 152 | 1.6 | 4.8 | 0.00 | 0.00 | 0.00 | 58 | 1018.5 |
| 20260506195503 | 22 | 140 | 1.6 | 9.7 | 0.00 | 0.00 | 0.00 | 59 | 1018.5 |
| 20260506195003 | 22 | 128 | 3.2 | 4.8 | 0.00 | 0.00 | 0.00 | 59 | 1018.6 |
| 20260506194503 | 22 | 129 | 3.2 | 4.8 | 0.00 | 0.00 | 0.00 | 59 | 1018.6 |
| 20260506194219 | 22 | 141 | 3.2 | 9.7 | 0.00 | 0.00 | 0.00 | 58 | 1018.7 |
| 20260506193503 | 22 | 161 | 3.2 | 9.7 | 0.00 | 0.00 | 0.00 | 59 | 1018.7 |
| 20260506193003 | 22 | 175 | 3.2 | 9.7 | 0.00 | 0.00 | 0.00 | 60 | 1018.9 |
| 20260506192503 | 22 | 211 | 3.2 | 8.0 | 0.00 | 0.00 | 0.00 | 60 | 1019.0 |
| 20260506192003 | 22 | 216 | 3.2 | 9.7 | 0.00 | 0.00 | 0.00 | 61 | 1018.9 |
| 20260506191716 | 22 | 200 | 3.2 | 9.7 | 0.00 | 0.00 | 0.00 | 60 | 1018.9 |
| 20260506191217 | 22 | 188 | 3.2 | 9.7 | 0.00 | 0.00 | 0.00 | 61 | 1019.0 |
| 20260506190503 | 22 | 169 | 3.2 | 9.7 | 0.00 | 0.00 | 0.00 | 63 | 1019.1 |
| 20260506190003 | 21 | 146 | 4.8 | 9.7 | 0.00 | 0.00 | 0.00 | 63 | 1019.1 |
| 20260506185503 | 21 | 150 | 3.2 | 9.7 | 0.00 | 0.00 | 0.00 | 62 | 1019.1 |
| 20260506185004 | 21 | 153 | 3.2 | 9.7 | 0.00 | 0.00 | 0.00 | 62 | 1019.2 |
| 20260506184503 | 21 | 162 | 3.2 | 9.7 | 0.00 | 0.00 | 0.00 | 62 | 1019.2 |
| 20260506184003 | 21 | 191 | 3.2 | 9.7 | 0.00 | 0.00 | 0.00 | 62 | 1019.2 |
| 20260506183716 | 21 | 225 | 3.2 | 8.0 | 0.00 | 0.00 | 0.00 | 61 | 1019.2 |
| 20260506183003 | 22 | 178 | 3.2 | 9.7 | 0.00 | 0.00 | 0.00 | 61 | 1019.2 |
| 20260506182503 | 22 | 144 | 3.2 | 9.7 | 0.00 | 0.00 | 0.00 | 60 | 1019.3 |
| 20260506182004 | 22 | 93 | 3.2 | 8.0 | 0.00 | 0.00 | 0.00 | 61 | 1019.3 |
| 20260506181716 | 22 | 68 | 3.2 | 8.0 | 0.00 | 0.00 | 0.00 | 61 | 1019.3 |
| 20260506181003 | 22 | 94 | 3.2 | 9.7 | 0.00 | 0.00 | 0.00 | 58 | 1019.2 |
| 20260506180718 | 22 | 104 | 3.2 | 9.7 | 0.00 | 0.00 | 0.00 | 58 | 1019.2 |
| 20260506180004 | 22 | 155 | 3.2 | 8.0 | 0.00 | 0.00 | 0.00 | 60 | 1019.1 |
| 20260506175503 | 22 | 145 | 3.2 | 11.3 | 0.00 | 0.00 | 0.00 | 60 | 1019.1 |
| 20260506175217 | 22 | 137 | 3.2 | 11.3 | 0.00 | 0.00 | 0.00 | 60 | 1019.2 |
| 20260506174503 | 21 | 140 | 4.8 | 11.3 | 0.00 | 0.00 | 0.00 | 61 | 1019.2 |
| 20260506174003 | 21 | 152 | 4.8 | 11.3 | 0.00 | 0.00 | 0.00 | 61 | 1019.3 |
| 20260506173504 | 21 | 149 | 4.8 | 11.3 | 0.00 | 0.00 | 0.00 | 61 | 1019.3 |
| 20260506173004 | 21 | 151 | 4.8 | 11.3 | 0.00 | 0.00 | 0.00 | 62 | 1019.3 |
| 20260506172503 | 21 | 159 | 4.8 | 11.3 | 0.00 | 0.00 | 0.00 | 62 | 1019.3 |
| 20260506172003 | 21 | 144 | 3.2 | 11.3 | 0.00 | 0.00 | 0.00 | 62 | 1019.3 |
| 20260506171720 | 21 | 147 | 3.2 | 11.3 | 0.00 | 0.00 | 0.00 | 62 | 1019.2 |
| 20260506171004 | 21 | 160 | 3.2 | 11.3 | 0.00 | 0.00 | 0.00 | 62 | 1019.3 |
| 20260506170503 | 21 | 174 | 3.2 | 9.7 | 0.00 | 0.00 | 0.00 | 63 | 1019.4 |
| 20260506170003 | 20 | 171 | 3.2 | 9.7 | 0.00 | 0.00 | 0.00 | 63 | 1019.4 |
| 20260506165719 | 20 | 178 | 1.6 | 9.7 | 0.00 | 0.00 | 0.00 | 63 | 1019.4 |
| 20260506165003 | 20 | 142 | 1.6 | 6.4 | 0.00 | 0.00 | 0.00 | 64 | 1019.4 |
| 20260506164503 | 20 | 130 | 1.6 | 8.0 | 0.00 | 0.00 | 0.00 | 64 | 1019.4 |
| 20260506164004 | 20 | 163 | 1.6 | 8.0 | 0.00 | 0.00 | 0.00 | 64 | 1019.4 |
| 20260506163503 | 19 | 205 | 3.2 | 8.0 | 0.00 | 0.00 | 0.00 | 64 | 1019.4 |
| 20260506163003 | 19 | 201 | 3.2 | 8.0 | 0.00 | 0.00 | 0.00 | 65 | 1019.4 |
| 20260506162503 | 19 | 203 | 1.6 | 4.8 | 0.00 | 0.00 | 0.00 | 66 | 1019.4 |
| 20260506162218 | 18 | 179 | 1.6 | 4.8 | 0.00 | 0.00 | 0.00 | 66 | 1019.4 |
| 20260506161504 | 18 | 149 | 1.6 | 4.8 | 0.00 | 0.00 | 0.00 | 67 | 1019.4 |
| 20260506161003 | 18 | 142 | 1.6 | 4.8 | 0.00 | 0.00 | 0.00 | 68 | 1019.3 |
| 20260506160503 | 18 | 151 | 1.6 | 4.8 | 0.00 | 0.00 | 0.00 | 68 | 1019.4 |
| 20260506160003 | 17 | 156 | 1.6 | 4.8 | 0.00 | 0.00 | 0.00 | 70 | 1019.4 |
| 20260506155719 | 17 | 157 | 1.6 | 8.0 | 0.00 | 0.00 | 0.00 | 70 | 1019.5 |
| 20260506155004 | 17 | 197 | 1.6 | 8.0 | 0.00 | 0.00 | 0.00 | 71 | 1019.5 |
| 20260506154503 | 17 | 296 | 1.6 | 4.8 | 0.00 | 0.00 | 0.00 | 73 | 1019.6 |
| 20260506154003 | 16 | 297 | 1.6 | 4.8 | 0.00 | 0.00 | 0.00 | 75 | 1019.5 |
| 20260506153503 | 16 | 297 | 1.6 | 3.2 | 0.00 | 0.00 | 0.00 | 76 | 1019.5 |
| 20260506153004 | 16 | 296 | 1.6 | 4.8 | 0.00 | 0.00 | 0.00 | 78 | 1019.5 |
| 20260506152503 | 15 | 290 | 1.6 | 4.8 | 0.00 | 0.00 | 0.00 | 79 | 1019.5 |
| 20260506152003 | 15 | 291 | 1.6 | 4.8 | 0.00 | 0.00 | 0.00 | 82 | 1019.3 |
| 20260506151503 | 14 | 337 | 1.6 | 6.4 | 0.00 | 0.00 | 0.00 | 82 | 1019.4 |
| 20260506151004 | 14 | 299 | 1.6 | 11.3 | 0.00 | 0.00 | 0.00 | 83 | 1019.4 |
| 20260506150503 | 13 | 267 | 0.0 | 11.3 | 0.00 | 0.00 | 0.00 | 84 | 1019.4 |
| 20260506150218 | 13 | 256 | 11.3 | 11.3 | 0.00 | 0.00 | 0.00 | 84 | 1019.4 |
| 20260506145503 | 13 | 0 | 0.0 | 0.0 | 0.00 | 0.00 | 0.00 | 85 | 1019.4 |
| 20260506145003 | 13 | 0 | 0.0 | 0.0 | 0.00 | 0.00 | 0.00 | 85 | 1019.4 |
| 20260506144503 | 13 | 0 | 0.0 | 0.0 | 0.00 | 0.00 | 0.00 | 86 | 1019.3 |
| 20260506144217 | 13 | 0 | 0.0 | 0.0 | 0.00 | 0.00 | 0.00 | 86 | 1019.3 |
| 20260506143503 | 13 | 0 | 0.0 | 0.0 | 0.00 | 0.00 | 0.00 | 86 | 1019.3 |
| 20260506143004 | 13 | 0 | 0.0 | 0.0 | 0.00 | 0.00 | 0.00 | 86 | 1019.3 |
| 20260506142503 | 13 | 0 | 0.0 | 0.0 | 0.00 | 0.00 | 0.00 | 86 | 1019.3 |
| 20260506142003 | 13 | 0 | 0.0 | 0.0 | 0.00 | 0.00 | 0.00 | 86 | 1019.2 |
| 20260506141718 | 13 | 0 | 0.0 | 0.0 | 0.00 | 0.00 | 0.00 | 85 | 1019.1 |
| 20260506141003 | 13 | 0 | 0.0 | 0.0 | 0.00 | 0.00 | 0.00 | 85 | 1019.1 |
| 20260506140503 | 12 | 0 | 0.0 | 0.0 | 0.00 | 0.00 | 0.00 | 85 | 1019.1 |
| 20260506140003 | 12 | 0 | 0.0 | 0.0 | 0.00 | 0.00 | 0.00 | 85 | 1019.0 |
| 20260506135503 | 12 | 0 | 0.0 | 0.0 | 0.00 | 0.00 | 0.00 | 85 | 1019.0 |
| 20260506135003 | 12 | 0 | 0.0 | 0.0 | 0.00 | 0.00 | 0.00 | 85 | 1018.9 |
| 20260506134504 | 12 | 0 | 0.0 | 0.0 | 0.00 | 0.00 | 0.00 | 85 | 1018.9 |
| 20260506134003 | 12 | 0 | 0.0 | 0.0 | 0.00 | 0.00 | 0.00 | 85 | 1018.9 |
| 20260506133503 | 13 | 0 | 0.0 | 0.0 | 0.00 | 0.00 | 0.00 | 85 | 1018.9 |
| 20260506133003 | 13 | 0 | 0.0 | 0.0 | 0.00 | 0.00 | 0.00 | 85 | 1018.9 |
| 20260506132503 | 13 | 0 | 0.0 | 0.0 | 0.00 | 0.00 | 0.00 | 85 | 1018.9 |
| 20260506132004 | 13 | 0 | 0.0 | 0.0 | 0.00 | 0.00 | 0.00 | 85 | 1018.7 |
| 20260506131718 | 13 | 0 | 0.0 | 0.0 | 0.00 | 0.00 | 0.00 | 85 | 1018.8 |
| 20260506131219 | 13 | 0 | 0.0 | 0.0 | 0.00 | 0.00 | 0.00 | 85 | 1018.7 |
| 20260506130504 | 13 | 0 | 0.0 | 0.0 | 0.00 | 0.00 | 0.00 | 85 | 1018.7 |
| 20260506130004 | 13 | 0 | 0.0 | 0.0 | 0.00 | 0.00 | 0.00 | 85 | 1018.7 |
| 20260506125503 | 13 | 0 | 0.0 | 0.0 | 0.00 | 0.00 | 0.00 | 85 | 1018.6 |
| 20260506125003 | 13 | 0 | 0.0 | 0.0 | 0.00 | 0.00 | 0.00 | 85 | 1018.6 |
| 20260506124504 | 13 | 0 | 0.0 | 0.0 | 0.00 | 0.00 | 0.00 | 85 | 1018.6 |
| 20260506124003 | 13 | 0 | 0.0 | 0.0 | 0.00 | 0.00 | 0.00 | 85 | 1018.6 |
| 20260506123503 | 13 | 0 | 3.2 | 3.2 | 0.00 | 0.00 | 0.00 | 85 | 1018.6 |
| 20260506123003 | 13 | 0 | 3.2 | 3.2 | 0.00 | 0.00 | 0.00 | 85 | 1018.5 |
| 20260506122715 | 13 | 245 | 3.2 | 3.2 | 0.00 | 0.00 | 0.00 | 85 | 1018.5 |
| 20260506122003 | 13 | 245 | 0.0 | 3.2 | 0.00 | 0.00 | 0.00 | 85 | 1018.5 |
| 20260506121503 | 13 | 245 | 0.0 | 3.2 | 0.00 | 0.00 | 0.00 | 84 | 1018.5 |
| 20260506121004 | 13 | 245 | 0.0 | 3.2 | 0.00 | 0.00 | 0.00 | 84 | 1018.4 |
| 20260506120503 | 13 | 253 | 0.0 | 4.8 | 0.00 | 0.00 | 0.00 | 84 | 1018.4 |
| 20260506120003 | 13 | 264 | 1.6 | 4.8 | 0.00 | 0.00 | 0.00 | 84 | 1018.4 |
| 20260506115503 | 13 | 282 | 1.6 | 6.4 | 0.00 | 0.00 | 0.00 | 84 | 1018.4 |
| 20260506115004 | 13 | 266 | 1.6 | 6.4 | 0.00 | 0.00 | 0.00 | 84 | 1018.4 |
| 20260506114503 | 13 | 245 | 1.6 | 6.4 | 0.00 | 0.00 | 0.00 | 84 | 1018.4 |
| 20260506114003 | 13 | 243 | 1.6 | 6.4 | 0.00 | 0.00 | 0.00 | 84 | 1018.4 |
| 20260506113717 | 13 | 248 | 1.6 | 4.8 | 0.00 | 0.00 | 0.00 | 84 | 1018.3 |
| 20260506113218 | 13 | 250 | 1.6 | 4.8 | 0.00 | 0.00 | 0.00 | 84 | 1018.2 |
| 20260506112503 | 13 | 252 | 0.0 | 3.2 | 0.00 | 0.00 | 0.00 | 84 | 1018.1 |
| 20260506112004 | 13 | 252 | 0.0 | 1.6 | 0.00 | 0.00 | 0.00 | 84 | 1018.1 |
| 20260506111503 | 13 | 252 | 0.0 | 1.6 | 0.00 | 0.00 | 0.00 | 84 | 1018.1 |
| 20260506111003 | 13 | 0 | 0.0 | 0.0 | 0.00 | 0.00 | 0.00 | 84 | 1018.1 |
| 20260506110504 | 13 | 0 | 0.0 | 0.0 | 0.00 | 0.00 | 0.00 | 84 | 1018.0 |
| 20260506110003 | 13 | 0 | 0.0 | 0.0 | 0.00 | 0.00 | 0.00 | 84 | 1018.0 |
| 20260506105503 | 13 | 0 | 0.0 | 0.0 | 0.00 | 0.00 | 0.00 | 84 | 1018.0 |
| 20260506105218 | 13 | 0 | 0.0 | 0.0 | 0.00 | 0.00 | 0.00 | 84 | 1018.0 |
| 20260506104503 | 13 | 252 | 1.6 | 1.6 | 0.00 | 0.00 | 0.00 | 84 | 1017.9 |
| 20260506104003 | 13 | 252 | 1.6 | 3.2 | 0.00 | 0.00 | 0.00 | 84 | 1017.9 |
| 20260506103503 | 13 | 252 | 1.6 | 3.2 | 0.00 | 0.00 | 0.00 | 84 | 1017.9 |
| 20260506103003 | 13 | 252 | 1.6 | 3.2 | 0.00 | 0.00 | 0.00 | 84 | 1017.8 |
| 20260506102504 | 13 | 252 | 0.0 | 4.8 | 0.00 | 0.00 | 0.00 | 84 | 1017.9 |
| 20260506102003 | 13 | 252 | 0.0 | 4.8 | 0.00 | 0.00 | 0.00 | 84 | 1017.8 |
| 20260506101503 | 13 | 252 | 1.6 | 3.2 | 0.00 | 0.00 | 0.00 | 83 | 1017.8 |
| 20260506101003 | 13 | 252 | 1.6 | 3.2 | 0.00 | 0.00 | 0.00 | 83 | 1017.7 |
| 20260506100504 | 13 | 252 | 0.0 | 3.2 | 0.00 | 0.00 | 0.00 | 83 | 1017.7 |
| 20260506100004 | 13 | 252 | 0.0 | 3.2 | 0.00 | 0.00 | 0.00 | 83 | 1017.7 |
| 20260506095503 | 13 | 252 | 0.0 | 3.2 | 0.00 | 0.00 | 0.00 | 83 | 1017.8 |
| 20260506095003 | 13 | 252 | 1.6 | 3.2 | 0.00 | 0.00 | 0.00 | 83 | 1017.8 |
| 20260506094503 | 13 | 252 | 0.0 | 3.2 | 0.00 | 0.00 | 0.00 | 83 | 1017.8 |
| 20260506094004 | 13 | 252 | 0.0 | 3.2 | 0.00 | 0.00 | 0.00 | 83 | 1017.8 |
| 20260506093503 | 13 | 252 | 0.0 | 3.2 | 0.00 | 0.00 | 0.00 | 83 | 1017.7 |
| 20260506093218 | 13 | 252 | 0.0 | 3.2 | 0.00 | 0.00 | 0.00 | 83 | 1017.8 |
| 20260506092503 | 13 | 252 | 0.0 | 1.6 | 0.00 | 0.00 | 0.00 | 83 | 1017.8 |
| 20260506092004 | 13 | 252 | 0.0 | 3.2 | 0.00 | 0.00 | 0.00 | 83 | 1017.8 |
| 20260506091503 | 13 | 252 | 0.0 | 3.2 | 0.00 | 0.00 | 0.00 | 83 | 1017.8 |
| 20260506091003 | 13 | 252 | 0.0 | 3.2 | 0.00 | 0.00 | 0.00 | 83 | 1017.9 |
| 20260506090503 | 13 | 252 | 0.0 | 3.2 | 0.00 | 0.00 | 0.00 | 83 | 1017.9 |
| 20260506090003 | 13 | 0 | 0.0 | 0.0 | 0.00 | 0.00 | 0.00 | 82 | 1017.9 |
| 20260506085716 | 13 | 0 | 0.0 | 0.0 | 0.00 | 0.00 | 0.00 | 83 | 1017.9 |
| 20260506085003 | 13 | 0 | 0.0 | 0.0 | 0.00 | 0.00 | 0.00 | 82 | 1017.9 |
| 20260506084503 | 13 | 252 | 1.6 | 1.6 | 0.00 | 0.00 | 0.00 | 82 | 1017.9 |
| 20260506084003 | 13 | 252 | 1.6 | 6.4 | 0.00 | 0.00 | 0.00 | 82 | 1017.9 |
| 20260506083504 | 13 | 259 | 1.6 | 6.4 | 0.00 | 0.00 | 0.00 | 82 | 1017.9 |
| 20260506083003 | 13 | 267 | 0.0 | 6.4 | 0.00 | 0.00 | 0.00 | 82 | 1017.9 |
| 20260506082503 | 13 | 270 | 0.0 | 4.8 | 0.00 | 0.00 | 0.00 | 82 | 1017.8 |
| 20260506082004 | 13 | 267 | 0.0 | 3.2 | 0.00 | 0.00 | 0.00 | 82 | 1017.9 |
| 20260506081504 | 13 | 267 | 0.0 | 3.2 | 0.00 | 0.00 | 0.00 | 82 | 1017.8 |
| 20260506081217 | 13 | 267 | 0.0 | 3.2 | 0.00 | 0.00 | 0.00 | 82 | 1017.8 |
| 20260506080503 | 13 | 267 | 0.0 | 3.2 | 0.00 | 0.00 | 0.00 | 82 | 1017.8 |
| 20260506073503 | 13 | 239 | 1.6 | 4.8 | 0.00 | 0.00 | 0.00 | 82 | 1017.6 |
| 20260506073003 | 13 | 209 | 1.6 | 4.8 | 0.00 | 0.00 | 0.00 | 81 | 1017.5 |
| 20260506072504 | 13 | 227 | 1.6 | 4.8 | 0.00 | 0.00 | 0.00 | 81 | 1017.4 |
| 20260506072004 | 13 | 244 | 3.2 | 8.0 | 0.00 | 0.00 | 0.00 | 81 | 1017.4 |
| 20260506071503 | 13 | 245 | 3.2 | 8.0 | 0.00 | 0.00 | 0.00 | 81 | 1017.4 |
| 20260506071003 | 13 | 247 | 3.2 | 9.7 | 0.00 | 0.00 | 0.00 | 81 | 1017.3 |
| 20260506070503 | 13 | 245 | 3.2 | 9.7 | 0.00 | 0.00 | 0.00 | 80 | 1017.3 |
| 20260506062003 | 13 | 217 | 1.6 | 4.8 | 0.00 | 0.00 | 0.00 | 79 | 1016.9 |
| 20260506061503 | 13 | 218 | 1.6 | 6.4 | 0.00 | 0.00 | 0.00 | 79 | 1016.9 |
| 20260506061003 | 13 | 206 | 1.6 | 8.0 | 0.00 | 0.00 | 0.00 | 79 | 1016.8 |
| 20260506060503 | 13 | 192 | 1.6 | 8.0 | 0.00 | 0.00 | 0.00 | 79 | 1016.8 |
| 20260506051003 | 13 | 197 | 3.2 | 9.7 | 0.00 | 0.00 | 0.00 | 78 | 1016.5 |
| 20260506050503 | 13 | 201 | 3.2 | 9.7 | 0.00 | 0.00 | 0.00 | 78 | 1016.5 |
| 20260506045003 | 13 | 202 | 3.2 | 6.4 | 0.00 | 0.00 | 0.00 | 79 | 1016.4 |
| 20260506044503 | 13 | 207 | 1.6 | 8.0 | 0.00 | 0.00 | 0.00 | 79 | 1016.3 |
| 20260506044004 | 13 | 216 | 1.6 | 8.0 | 0.00 | 0.00 | 0.00 | 78 | 1016.2 |
| 20260506043719 | 13 | 223 | 1.6 | 4.8 | 0.00 | 0.00 | 0.00 | 78 | 1016.2 |
| 20260506043003 | 13 | 230 | 1.6 | 6.4 | 0.00 | 0.00 | 0.00 | 78 | 1016.1 |
| 20260506042503 | 13 | 245 | 3.2 | 6.4 | 0.00 | 0.00 | 0.00 | 78 | 1016.0 |
| 20260506042003 | 13 | 250 | 3.2 | 8.0 | 0.00 | 0.00 | 0.00 | 77 | 1016.0 |
| 20260506041503 | 13 | 250 | 3.2 | 8.0 | 0.00 | 0.00 | 0.00 | 77 | 1016.0 |
| 20260506041220 | 13 | 248 | 4.8 | 6.4 | 0.00 | 0.00 | 0.00 | 77 | 1015.9 |
| 20260506040503 | 13 | 250 | 4.8 | 12.9 | 0.00 | 0.00 | 0.00 | 77 | 1015.9 |
| 20260506040004 | 13 | 247 | 3.2 | 12.9 | 0.00 | 0.00 | 0.00 | 77 | 1015.8 |
| 20260506035503 | 13 | 228 | 3.2 | 12.9 | 0.00 | 0.00 | 0.00 | 77 | 1015.7 |
| 20260506035004 | 14 | 220 | 3.2 | 12.9 | 0.00 | 0.00 | 0.00 | 77 | 1015.7 |
| 20260506034503 | 14 | 230 | 4.8 | 9.7 | 0.00 | 0.00 | 0.00 | 77 | 1015.7 |
| 20260506034003 | 14 | 247 | 4.8 | 12.9 | 0.00 | 0.00 | 0.00 | 77 | 1015.5 |
| 20260506033503 | 14 | 253 | 4.8 | 12.9 | 0.00 | 0.00 | 0.00 | 77 | 1015.5 |
| 20260506033004 | 14 | 249 | 3.2 | 12.9 | 0.00 | 0.00 | 0.00 | 77 | 1015.4 |
| 20260506032503 | 14 | 246 | 4.8 | 11.3 | 0.00 | 0.00 | 0.00 | 77 | 1015.3 |
| 20260506032004 | 14 | 243 | 4.8 | 11.3 | 0.00 | 0.00 | 0.00 | 76 | 1015.2 |
| 20260506031503 | 14 | 244 | 4.8 | 16.1 | 0.00 | 0.00 | 0.00 | 76 | 1015.2 |
| 20260506031003 | 14 | 242 | 6.4 | 16.1 | 0.00 | 0.00 | 0.00 | 76 | 1015.0 |
| 20260506030503 | 14 | 240 | 6.4 | 17.7 | 0.00 | 0.00 | 0.00 | 75 | 1014.9 |
| 20260506030003 | 14 | 242 | 6.4 | 17.7 | 0.00 | 0.00 | 0.00 | 75 | 1014.9 |
| 20260506025504 | 14 | 242 | 8.0 | 19.3 | 0.00 | 0.00 | 0.00 | 75 | 1014.8 |
| 20260506025003 | 14 | 246 | 8.0 | 19.3 | 0.00 | 0.00 | 0.00 | 75 | 1014.9 |
| 20260506024503 | 14 | 246 | 6.4 | 14.5 | 0.00 | 0.00 | 0.00 | 75 | 1014.8 |
| 20260506024004 | 15 | 250 | 6.4 | 22.5 | 0.00 | 0.00 | 0.00 | 75 | 1014.7 |
| 20260506023503 | 15 | 253 | 6.4 | 22.5 | 0.00 | 0.00 | 0.00 | 74 | 1014.7 |
| 20260506023003 | 15 | 245 | 8.0 | 17.7 | 0.00 | 0.00 | 0.00 | 74 | 1014.6 |
| 20260506022504 | 15 | 241 | 8.0 | 19.3 | 0.00 | 0.00 | 0.00 | 74 | 1014.6 |
| 20260506022003 | 15 | 243 | 6.4 | 19.3 | 0.00 | 0.00 | 0.00 | 74 | 1014.6 |
| 20260506021503 | 15 | 241 | 6.4 | 16.1 | 0.00 | 0.00 | 0.00 | 74 | 1014.6 |
| 20260506021004 | 15 | 241 | 6.4 | 17.7 | 0.00 | 0.00 | 0.00 | 74 | 1014.5 |
| 20260506020503 | 15 | 242 | 8.0 | 17.7 | 0.00 | 0.00 | 0.00 | 74 | 1014.4 |
| 20260506020217 | 15 | 242 | 8.0 | 19.3 | 0.00 | 0.00 | 0.00 | 74 | 1014.4 |
| 20260506015503 | 15 | 244 | 8.0 | 20.9 | 0.00 | 0.00 | 0.00 | 73 | 1014.3 |
| 20260506015003 | 15 | 241 | 8.0 | 22.5 | 0.00 | 0.00 | 0.00 | 73 | 1014.3 |
| 20260506014503 | 15 | 240 | 8.0 | 22.5 | 0.00 | 0.00 | 0.00 | 73 | 1014.2 |
| 20260506014004 | 16 | 242 | 8.0 | 20.9 | 0.00 | 0.00 | 0.00 | 73 | 1014.2 |
| 20260506013503 | 16 | 239 | 8.0 | 20.9 | 0.00 | 0.00 | 0.00 | 72 | 1014.1 |
| 20260506013003 | 16 | 236 | 8.0 | 20.9 | 0.00 | 0.00 | 0.00 | 72 | 1014.1 |
| 20260506012720 | 16 | 236 | 8.0 | 20.9 | 0.00 | 0.00 | 0.00 | 72 | 1014.0 |
| 20260506012216 | 16 | 225 | 8.0 | 19.3 | 0.00 | 0.00 | 0.00 | 72 | 1014.0 |
| 20260506011504 | 16 | 222 | 4.8 | 22.5 | 0.00 | 0.00 | 0.00 | 72 | 1014.1 |
| 20260506011003 | 16 | 226 | 6.4 | 20.9 | 0.00 | 0.00 | 0.00 | 72 | 1014.0 |
| 20260506010503 | 16 | 224 | 8.0 | 19.3 | 0.00 | 0.00 | 0.00 | 73 | 1014.0 |
| 20260506010003 | 16 | 238 | 8.0 | 24.1 | 0.00 | 0.00 | 0.00 | 72 | 1013.9 |
| 20260506005503 | 16 | 241 | 8.0 | 24.1 | 0.00 | 0.00 | 0.00 | 72 | 1014.0 |
| 20260506005003 | 16 | 242 | 6.4 | 20.9 | 0.00 | 0.00 | 0.00 | 72 | 1014.0 |
| 20260506004504 | 16 | 241 | 6.4 | 20.9 | 0.00 | 0.00 | 0.00 | 72 | 1013.9 |
| 20260506004003 | 16 | 234 | 6.4 | 20.9 | 0.00 | 0.00 | 0.00 | 72 | 1013.9 |
| 20260506003503 | 16 | 227 | 4.8 | 20.9 | 0.00 | 0.00 | 0.00 | 72 | 1013.9 |
| 20260506003003 | 16 | 222 | 4.8 | 17.7 | 0.00 | 0.00 | 0.00 | 72 | 1013.8 |
| 20260506002503 | 16 | 228 | 4.8 | 16.1 | 0.00 | 0.00 | 0.00 | 72 | 1013.8 |
| 20260506002003 | 17 | 232 | 4.8 | 16.1 | 0.00 | 0.00 | 0.00 | 72 | 1013.7 |
| 20260506001504 | 17 | 234 | 4.8 | 14.5 | 0.00 | 0.00 | 0.00 | 72 | 1013.7 |
| 20260506001003 | 17 | 234 | 6.4 | 14.5 | 0.00 | 0.00 | 0.00 | 72 | 1013.7 |
| 20260506000503 | 17 | 234 | 6.4 | 20.9 | 0.00 | 0.00 | 0.00 | 71 | 1013.6 |
| 20260506000004 | 17 | 229 | 6.4 | 20.9 | 0.00 | 0.00 | 0.00 | 71 | 1013.6 |
| 20260505235504 | 17 | 216 | 6.4 | 17.7 | 0.00 | 0.00 | 0.00 | 70 | 1013.6 |
| 20260505235003 | 17 | 224 | 6.4 | 17.7 | 0.00 | 0.00 | 0.00 | 70 | 1013.6 |
| 20260505234503 | 17 | 228 | 4.8 | 19.3 | 0.00 | 0.00 | 0.00 | 70 | 1013.6 |
| 20260505234003 | 17 | 210 | 4.8 | 19.3 | 0.00 | 0.00 | 0.00 | 70 | 1013.7 |
| 20260505233717 | 17 | 205 | 4.8 | 12.9 | 0.00 | 0.00 | 0.00 | 69 | 1013.6 |
| 20260505233218 | 17 | 204 | 4.8 | 16.1 | 0.00 | 0.00 | 0.00 | 68 | 1013.6 |
| 20260505232504 | 18 | 222 | 6.4 | 12.9 | 0.00 | 0.00 | 0.00 | 69 | 1013.6 |
| 20260505232003 | 18 | 234 | 4.8 | 12.9 | 0.00 | 0.00 | 0.00 | 69 | 1013.6 |
| 20260505231717 | 18 | 234 | 4.8 | 14.5 | 0.00 | 0.00 | 0.00 | 69 | 1013.6 |
| 20260505231003 | 18 | 221 | 4.8 | 14.5 | 0.00 | 0.00 | 0.00 | 69 | 1013.5 |
| 20260505230503 | 18 | 222 | 6.4 | 16.1 | 0.00 | 0.00 | 0.00 | 70 | 1013.5 |
| 20260505230220 | 18 | 223 | 6.4 | 17.7 | 0.00 | 0.00 | 0.00 | 69 | 1013.5 |
| 20260505225504 | 18 | 208 | 6.4 | 17.7 | 0.00 | 0.00 | 0.00 | 69 | 1013.5 |
| 20260505225004 | 18 | 225 | 6.4 | 16.1 | 0.00 | 0.00 | 0.00 | 69 | 1013.5 |
| 20260505224503 | 18 | 239 | 6.4 | 16.1 | 0.00 | 0.00 | 0.00 | 69 | 1013.6 |
| 20260505224220 | 18 | 239 | 6.4 | 16.1 | 0.00 | 0.00 | 0.00 | 69 | 1013.5 |
| 20260505223503 | 18 | 231 | 4.8 | 19.3 | 0.00 | 0.00 | 0.00 | 69 | 1013.6 |
| 20260505223217 | 18 | 224 | 4.8 | 19.3 | 0.00 | 0.00 | 0.00 | 68 | 1013.7 |
| 20260505222503 | 18 | 212 | 6.4 | 16.1 | 0.00 | 0.00 | 0.00 | 69 | 1013.8 |
| 20260505222219 | 18 | 211 | 6.4 | 16.1 | 0.00 | 0.00 | 0.00 | 69 | 1013.7 |
| 20260505221504 | 18 | 221 | 4.8 | 16.1 | 0.00 | 0.00 | 0.00 | 68 | 1013.8 |
| 20260505221003 | 18 | 206 | 4.8 | 16.1 | 0.00 | 0.00 | 0.00 | 68 | 1013.7 |
| 20260505220503 | 18 | 209 | 4.8 | 14.5 | 0.00 | 0.00 | 0.00 | 68 | 1013.7 |
| 20260505220004 | 18 | 203 | 4.8 | 16.1 | 0.00 | 0.00 | 0.00 | 68 | 1013.7 |
| 20260505215504 | 18 | 184 | 4.8 | 16.1 | 0.00 | 0.00 | 0.00 | 67 | 1013.7 |
| 20260505215003 | 18 | 183 | 4.8 | 12.9 | 0.00 | 0.00 | 0.00 | 67 | 1013.7 |
| 20260505214503 | 18 | 199 | 4.8 | 19.3 | 0.00 | 0.00 | 0.00 | 68 | 1013.9 |
| 20260505214003 | 18 | 206 | 4.8 | 19.3 | 0.00 | 0.00 | 0.00 | 67 | 1013.9 |
| 20260505213716 | 19 | 186 | 4.8 | 14.5 | 0.00 | 0.00 | 0.00 | 68 | 1013.9 |
| 20260505213003 | 19 | 200 | 4.8 | 14.5 | 0.00 | 0.00 | 0.00 | 67 | 1014.0 |
| 20260505212503 | 19 | 203 | 4.8 | 12.9 | 0.00 | 0.00 | 0.00 | 67 | 1014.0 |
| 20260505212003 | 19 | 214 | 4.8 | 16.1 | 0.00 | 0.00 | 0.00 | 67 | 1014.1 |
| 20260505211716 | 19 | 222 | 4.8 | 16.1 | 0.00 | 0.00 | 0.00 | 67 | 1014.1 |
| 20260505211003 | 19 | 214 | 4.8 | 16.1 | 0.00 | 0.00 | 0.00 | 67 | 1014.1 |
| 20260505210504 | 19 | 202 | 4.8 | 14.5 | 0.00 | 0.00 | 0.00 | 68 | 1014.2 |
| 20260505210219 | 19 | 208 | 6.4 | 14.5 | 0.00 | 0.00 | 0.00 | 69 | 1014.2 |
| 20260505205503 | 18 | 197 | 6.4 | 16.1 | 0.00 | 0.00 | 0.00 | 69 | 1014.2 |
| 20260505205003 | 18 | 220 | 4.8 | 16.1 | 0.00 | 0.00 | 0.00 | 70 | 1014.2 |
| 20260505204503 | 18 | 221 | 6.4 | 14.5 | 0.00 | 0.00 | 0.00 | 70 | 1014.2 |
| 20260505204003 | 18 | 222 | 6.4 | 17.7 | 0.00 | 0.00 | 0.00 | 69 | 1014.2 |
| 20260505203504 | 18 | 237 | 6.4 | 17.7 | 0.00 | 0.00 | 0.00 | 70 | 1014.2 |
| 20260505203003 | 18 | 234 | 6.4 | 16.1 | 0.00 | 0.00 | 0.00 | 71 | 1014.2 |
| 20260505202503 | 18 | 237 | 6.4 | 17.7 | 0.00 | 0.00 | 0.00 | 72 | 1014.2 |